sensor_id;sensor_type;location;lat;lon;timestamp;pressure;altitude;pressure_sealevel;temperature;humidity
42671;BME280;28283;55.426;37.756;2022-09-17T00:02:20;97659.44;;;9.91;94.79
42671;BME280;28283;55.426;37.756;2022-09-17T00:07:27;97724.50;;;10.10;95.19
42671;BME280;28283;55.426;37.756;2022-09-17T00:12:30;97683.03;;;9.77;95.63
42671;BME280;28283;55.426;37.756;2022-09-17T00:17:31;97730.84;;;9.92;95.92
42671;BME280;28283;55.426;37.756;2022-09-17T00:22:31;97708.03;;;9.66;96.47
42671;BME280;28283;55.426;37.756;2022-09-17T00:27:32;97750.22;;;9.82;96.08
42671;BME280;28283;55.426;37.756;2022-09-17T00:32:33;97699.50;;;9.45;96.15
42671;BME280;28283;55.426;37.756;2022-09-17T00:37:33;97731.94;;;9.55;96.04
42671;BME280;28283;55.426;37.756;2022-09-17T00:42:34;97749.53;;;9.63;96.23
42671;BME280;28283;55.426;37.756;2022-09-17T00:47:56;97754.56;;;9.60;96.00
42671;BME280;28283;55.426;37.756;2022-09-17T00:53:18;97755.03;;;9.57;96.09
42671;BME280;28283;55.426;37.756;2022-09-17T00:58:20;97758.06;;;9.60;94.82
42671;BME280;28283;55.426;37.756;2022-09-17T01:03:22;97722.03;;;9.21;95.41
42671;BME280;28283;55.426;37.756;2022-09-17T01:19:39;97770.38;;;9.26;96.41
42671;BME280;28283;55.426;37.756;2022-09-17T01:24:42;97771.19;;;9.14;96.52
42671;BME280;28283;55.426;37.756;2022-09-17T01:35:24;97786.22;;;9.04;96.72
42671;BME280;28283;55.426;37.756;2022-09-17T01:40:44;97766.38;;;8.93;96.57
42671;BME280;28283;55.426;37.756;2022-09-17T01:45:53;97743.22;;;8.68;96.60
42671;BME280;28283;55.426;37.756;2022-09-17T01:51:03;97781.38;;;8.82;96.57
42671;BME280;28283;55.426;37.756;2022-09-17T01:56:05;97788.00;;;8.79;97.11
42671;BME280;28283;55.426;37.756;2022-09-17T02:01:08;97780.84;;;8.62;96.79
42671;BME280;28283;55.426;37.756;2022-09-17T02:06:16;97796.06;;;8.61;96.97
42671;BME280;28283;55.426;37.756;2022-09-17T02:11:19;97788.66;;;8.45;97.09
42671;BME280;28283;55.426;37.756;2022-09-17T02:16:28;97814.22;;;8.59;96.95
42671;BME280;28283;55.426;37.756;2022-09-17T02:21:45;97791.56;;;8.43;97.26
42671;BME280;28283;55.426;37.756;2022-09-17T02:27:04;97808.16;;;8.52;97.52
42671;BME280;28283;55.426;37.756;2022-09-17T02:32:07;97809.66;;;8.48;97.27
42671;BME280;28283;55.426;37.756;2022-09-17T02:37:08;97717.47;;;7.88;97.49
42671;BME280;28283;55.426;37.756;2022-09-17T02:48:02;97816.03;;;8.47;96.79
42671;BME280;28283;55.426;37.756;2022-09-17T02:53:30;97802.56;;;8.35;96.79
42671;BME280;28283;55.426;37.756;2022-09-17T02:59:00;97820.03;;;8.37;97.57
42671;BME280;28283;55.426;37.756;2022-09-17T03:04:02;97817.56;;;8.36;97.03
42671;BME280;28283;55.426;37.756;2022-09-17T03:09:04;97804.94;;;8.25;96.85
42671;BME280;28283;55.426;37.756;2022-09-17T03:14:05;97832.09;;;8.28;96.58
42671;BME280;28283;55.426;37.756;2022-09-17T03:19:05;97847.56;;;8.26;96.81
42671;BME280;28283;55.426;37.756;2022-09-17T03:24:06;97843.44;;;8.23;97.00
42671;BME280;28283;55.426;37.756;2022-09-17T03:29:07;97850.88;;;8.21;96.76
42671;BME280;28283;55.426;37.756;2022-09-17T03:34:08;97845.31;;;8.23;96.82
42671;BME280;28283;55.426;37.756;2022-09-17T03:39:09;97852.31;;;8.24;96.85
42671;BME280;28283;55.426;37.756;2022-09-17T03:44:10;97812.28;;;7.92;96.88
42671;BME280;28283;55.426;37.756;2022-09-17T03:49:10;97843.44;;;8.23;96.97
42671;BME280;28283;55.426;37.756;2022-09-17T03:54:11;97861.97;;;8.25;96.93
42671;BME280;28283;55.426;37.756;2022-09-17T03:59:12;97855.66;;;8.19;96.18
42671;BME280;28283;55.426;37.756;2022-09-17T04:04:13;97862.66;;;8.20;96.58
42671;BME280;28283;55.426;37.756;2022-09-17T04:09:15;97885.84;;;8.27;96.89
42671;BME280;28283;55.426;37.756;2022-09-17T04:14:16;97869.84;;;8.20;96.68
42671;BME280;28283;55.426;37.756;2022-09-17T04:19:17;97853.03;;;8.13;96.66
42671;BME280;28283;55.426;37.756;2022-09-17T04:24:17;97890.97;;;8.28;96.58
42671;BME280;28283;55.426;37.756;2022-09-17T04:29:18;97878.34;;;8.17;96.70
42671;BME280;28283;55.426;37.756;2022-09-17T04:34:19;97896.78;;;8.25;96.58
42671;BME280;28283;55.426;37.756;2022-09-17T04:39:19;97853.41;;;7.98;97.11
42671;BME280;28283;55.426;37.756;2022-09-17T04:44:21;97899.66;;;8.23;96.32
42671;BME280;28283;55.426;37.756;2022-09-17T04:49:22;97902.44;;;8.17;97.16
42671;BME280;28283;55.426;37.756;2022-09-17T04:54:22;97913.00;;;8.30;96.54
42671;BME280;28283;55.426;37.756;2022-09-17T04:59:23;97905.19;;;8.29;96.80
42671;BME280;28283;55.426;37.756;2022-09-17T05:04:24;97906.75;;;8.36;96.64
42671;BME280;28283;55.426;37.756;2022-09-17T05:09:24;97922.19;;;8.59;96.85
42671;BME280;28283;55.426;37.756;2022-09-17T05:14:26;97920.91;;;8.81;96.32
42671;BME280;28283;55.426;37.756;2022-09-17T05:19:27;97890.78;;;8.85;95.90
42671;BME280;28283;55.426;37.756;2022-09-17T05:24:27;97833.41;;;8.74;95.32
42671;BME280;28283;55.426;37.756;2022-09-17T05:29:28;97912.47;;;9.44;93.66
42671;BME280;28283;55.426;37.756;2022-09-17T05:34:29;97919.03;;;9.72;93.49
42671;BME280;28283;55.426;37.756;2022-09-17T05:39:29;97945.47;;;10.10;91.15
42671;BME280;28283;55.426;37.756;2022-09-17T05:44:30;97896.78;;;9.95;90.42
42671;BME280;28283;55.426;37.756;2022-09-17T05:49:31;97958.81;;;10.64;89.53
42671;BME280;28283;55.426;37.756;2022-09-17T05:54:32;97945.91;;;10.78;88.28
42671;BME280;28283;55.426;37.756;2022-09-17T05:59:33;97959.34;;;11.02;87.90
42671;BME280;28283;55.426;37.756;2022-09-17T06:04:34;97963.22;;;11.23;86.63
42671;BME280;28283;55.426;37.756;2022-09-17T06:09:35;97946.47;;;11.33;85.21
42671;BME280;28283;55.426;37.756;2022-09-17T06:14:40;97930.47;;;11.26;84.70
42671;BME280;28283;55.426;37.756;2022-09-17T06:19:41;97953.97;;;11.59;83.73
42671;BME280;28283;55.426;37.756;2022-09-17T06:24:41;97957.25;;;11.78;82.45
42671;BME280;28283;55.426;37.756;2022-09-17T06:29:42;97870.81;;;11.29;81.51
42671;BME280;28283;55.426;37.756;2022-09-17T06:34:43;97977.28;;;11.99;81.80
42671;BME280;28283;55.426;37.756;2022-09-17T06:39:44;97975.81;;;12.26;80.99
42671;BME280;28283;55.426;37.756;2022-09-17T06:44:45;97972.72;;;12.34;80.41
42671;BME280;28283;55.426;37.756;2022-09-17T06:49:45;97958.59;;;12.44;78.65
42671;BME280;28283;55.426;37.756;2022-09-17T06:54:46;97947.63;;;12.50;76.17
42671;BME280;28283;55.426;37.756;2022-09-17T06:59:47;97978.41;;;12.93;76.42
42671;BME280;28283;55.426;37.756;2022-09-17T07:04:49;97956.56;;;12.73;75.49
42671;BME280;28283;55.426;37.756;2022-09-17T07:09:50;97985.69;;;13.15;73.17
42671;BME280;28283;55.426;37.756;2022-09-17T07:14:52;97969.25;;;13.16;72.42
42671;BME280;28283;55.426;37.756;2022-09-17T07:19:53;97984.31;;;13.34;72.37
42671;BME280;28283;55.426;37.756;2022-09-17T07:24:54;97990.97;;;13.49;71.51
42671;BME280;28283;55.426;37.756;2022-09-17T07:29:54;97991.34;;;13.58;71.20
42671;BME280;28283;55.426;37.756;2022-09-17T07:34:55;97942.75;;;13.90;68.56
42671;BME280;28283;55.426;37.756;2022-09-17T07:39:56;97970.22;;;13.77;66.91
42671;BME280;28283;55.426;37.756;2022-09-17T07:44:57;97985.25;;;14.00;65.33
42671;BME280;28283;55.426;37.756;2022-09-17T07:49:58;97995.50;;;13.98;65.51
42671;BME280;28283;55.426;37.756;2022-09-17T07:54:58;97949.50;;;13.60;66.01
42671;BME280;28283;55.426;37.756;2022-09-17T07:59:59;98004.81;;;14.12;64.58
42671;BME280;28283;55.426;37.756;2022-09-17T08:05:00;98001.81;;;14.08;63.51
42671;BME280;28283;55.426;37.756;2022-09-17T08:10:00;97979.34;;;14.03;62.85
42671;BME280;28283;55.426;37.756;2022-09-17T08:15:01;97990.09;;;14.30;61.26
42671;BME280;28283;55.426;37.756;2022-09-17T08:20:02;97972.94;;;14.46;58.58
42671;BME280;28283;55.426;37.756;2022-09-17T08:25:04;97986.97;;;14.43;57.98
42671;BME280;28283;55.426;37.756;2022-09-17T08:30:06;97963.81;;;14.20;58.79
42671;BME280;28283;55.426;37.756;2022-09-17T08:35:07;98007.22;;;14.78;57.53
42671;BME280;28283;55.426;37.756;2022-09-17T08:40:16;98002.25;;;14.60;58.86
42671;BME280;28283;55.426;37.756;2022-09-17T08:45:22;98006.31;;;15.05;55.93
42671;BME280;28283;55.426;37.756;2022-09-17T08:50:28;98014.22;;;14.69;56.21
42671;BME280;28283;55.426;37.756;2022-09-17T08:55:41;98010.69;;;15.11;53.78
42671;BME280;28283;55.426;37.756;2022-09-17T09:01:07;98031.50;;;15.11;54.76
42671;BME280;28283;55.426;37.756;2022-09-17T09:06:12;98031.72;;;14.99;56.07
42671;BME280;28283;55.426;37.756;2022-09-17T09:11:26;98017.88;;;15.53;53.59
42671;BME280;28283;55.426;37.756;2022-09-17T09:16:30;98022.38;;;15.22;52.21
42671;BME280;28283;55.426;37.756;2022-09-17T09:21:47;97988.03;;;15.33;51.40
42671;BME280;28283;55.426;37.756;2022-09-17T09:27:08;98040.66;;;15.62;48.70
42671;BME280;28283;55.426;37.756;2022-09-17T09:37:45;98026.66;;;15.86;48.29
42671;BME280;28283;55.426;37.756;2022-09-17T09:42:49;97990.34;;;15.82;46.86
42671;BME280;28283;55.426;37.756;2022-09-17T09:48:03;98053.38;;;15.62;48.43
42671;BME280;28283;55.426;37.756;2022-09-17T09:53:21;98059.56;;;15.52;47.46
42671;BME280;28283;55.426;37.756;2022-09-17T09:58:37;98067.28;;;15.76;46.83
42671;BME280;28283;55.426;37.756;2022-09-17T10:03:40;98030.78;;;16.19;46.00
42671;BME280;28283;55.426;37.756;2022-09-17T10:14:22;98055.44;;;16.44;44.34
42671;BME280;28283;55.426;37.756;2022-09-17T10:19:26;98062.75;;;16.33;44.29
42671;BME280;28283;55.426;37.756;2022-09-17T10:24:29;98053.56;;;16.80;42.18
42671;BME280;28283;55.426;37.756;2022-09-17T10:29:32;98057.34;;;16.74;42.73
42671;BME280;28283;55.426;37.756;2022-09-17T10:34:33;98073.34;;;16.75;42.22
42671;BME280;28283;55.426;37.756;2022-09-17T10:39:35;98063.88;;;16.73;41.53
42671;BME280;28283;55.426;37.756;2022-09-17T10:44:48;98048.66;;;16.82;41.79
42671;BME280;28283;55.426;37.756;2022-09-17T10:50:18;98066.50;;;17.19;40.80
42671;BME280;28283;55.426;37.756;2022-09-17T11:11:10;98070.63;;;16.65;43.87
42671;BME280;28283;55.426;37.756;2022-09-17T11:16:37;98081.53;;;16.86;43.82
42671;BME280;28283;55.426;37.756;2022-09-17T11:21:47;98099.06;;;17.45;43.11
42671;BME280;28283;55.426;37.756;2022-09-17T11:37:36;98066.56;;;17.89;40.04
42671;BME280;28283;55.426;37.756;2022-09-17T11:42:53;98075.50;;;17.85;41.00
42671;BME280;28283;55.426;37.756;2022-09-17T11:48:19;98057.03;;;17.82;38.94
42671;BME280;28283;55.426;37.756;2022-09-17T11:53:43;98096.25;;;17.65;40.44
42671;BME280;28283;55.426;37.756;2022-09-17T12:09:50;98102.31;;;17.36;42.21
42671;BME280;28283;55.426;37.756;2022-09-17T12:14:57;98106.44;;;17.29;42.51
42671;BME280;28283;55.426;37.756;2022-09-17T12:20:09;98091.19;;;17.38;42.00
42671;BME280;28283;55.426;37.756;2022-09-17T12:25:18;98098.75;;;17.51;42.55
42671;BME280;28283;55.426;37.756;2022-09-17T12:30:20;98092.88;;;17.94;41.50
42671;BME280;28283;55.426;37.756;2022-09-17T12:46:40;98110.53;;;17.21;43.61
42671;BME280;28283;55.426;37.756;2022-09-17T12:52:02;98115.69;;;17.12;44.03
42671;BME280;28283;55.426;37.756;2022-09-17T13:02:35;98117.84;;;17.15;43.87
42671;BME280;28283;55.426;37.756;2022-09-17T13:07:51;98120.06;;;17.03;44.01
42671;BME280;28283;55.426;37.756;2022-09-17T13:23:44;98110.28;;;16.92;44.76
42671;BME280;28283;55.426;37.756;2022-09-17T13:28:48;98121.13;;;16.87;45.12
42671;BME280;28283;55.426;37.756;2022-09-17T13:33:51;98107.03;;;16.95;44.90
42671;BME280;28283;55.426;37.756;2022-09-17T13:38:52;98061.97;;;16.73;44.78
42671;BME280;28283;55.426;37.756;2022-09-17T13:43:53;98089.94;;;16.84;44.93
42671;BME280;28283;55.426;37.756;2022-09-17T13:48:58;98131.44;;;17.10;44.81
42671;BME280;28283;55.426;37.756;2022-09-17T13:54:06;98061.69;;;16.59;45.14
42671;BME280;28283;55.426;37.756;2022-09-17T13:59:17;98115.72;;;16.87;45.33
42671;BME280;28283;55.426;37.756;2022-09-17T14:10:00;98096.97;;;16.65;46.21
42671;BME280;28283;55.426;37.756;2022-09-17T14:15:01;98115.69;;;16.66;46.45
42671;BME280;28283;55.426;37.756;2022-09-17T14:20:03;98112.97;;;16.66;46.80
42671;BME280;28283;55.426;37.756;2022-09-17T14:25:15;98120.81;;;16.52;47.67
42671;BME280;28283;55.426;37.756;2022-09-17T14:30:21;98123.28;;;16.38;47.90
42671;BME280;28283;55.426;37.756;2022-09-17T14:35:47;98138.69;;;16.33;48.28
42671;BME280;28283;55.426;37.756;2022-09-17T14:45:58;98139.47;;;16.13;48.96
42671;BME280;28283;55.426;37.756;2022-09-17T14:56:19;98156.75;;;15.91;49.69
42671;BME280;28283;55.426;37.756;2022-09-17T15:01:23;98137.59;;;15.60;50.59
42671;BME280;28283;55.426;37.756;2022-09-17T15:06:25;98158.72;;;15.58;51.20
42671;BME280;28283;55.426;37.756;2022-09-17T15:11:26;98163.25;;;15.42;52.05
42671;BME280;28283;55.426;37.756;2022-09-17T15:16:28;98158.22;;;15.19;53.28
42671;BME280;28283;55.426;37.756;2022-09-17T15:26:40;98182.09;;;14.89;54.75
42671;BME280;28283;55.426;37.756;2022-09-17T15:31:42;98178.44;;;14.74;55.50
42671;BME280;28283;55.426;37.756;2022-09-17T15:37:02;98172.91;;;14.63;55.84
42671;BME280;28283;55.426;37.756;2022-09-17T15:42:03;98155.56;;;14.32;56.99
42671;BME280;28283;55.426;37.756;2022-09-17T15:47:36;98165.03;;;14.35;57.31
42671;BME280;28283;55.426;37.756;2022-09-17T15:52:48;98145.16;;;13.97;58.67
42671;BME280;28283;55.426;37.756;2022-09-17T15:57:49;98174.00;;;13.91;59.00
42671;BME280;28283;55.426;37.756;2022-09-17T16:02:50;98198.50;;;13.84;59.99
42671;BME280;28283;55.426;37.756;2022-09-17T16:07:51;98182.22;;;13.57;60.63
42671;BME280;28283;55.426;37.756;2022-09-17T16:12:52;98112.53;;;12.98;61.32
42671;BME280;28283;55.426;37.756;2022-09-17T16:17:52;98189.69;;;13.33;61.82
42671;BME280;28283;55.426;37.756;2022-09-17T16:22:53;98220.00;;;13.23;62.18
42671;BME280;28283;55.426;37.756;2022-09-17T16:27:59;98240.47;;;13.19;62.93
42671;BME280;28283;55.426;37.756;2022-09-17T16:33:00;98235.69;;;13.09;63.38
42671;BME280;28283;55.426;37.756;2022-09-17T16:38:03;98234.88;;;12.92;64.22
42671;BME280;28283;55.426;37.756;2022-09-17T16:43:04;98228.31;;;12.71;63.79
42671;BME280;28283;55.426;37.756;2022-09-17T16:48:08;98248.66;;;12.78;64.76
42671;BME280;28283;55.426;37.756;2022-09-17T16:53:09;98238.19;;;12.65;65.24
42671;BME280;28283;55.426;37.756;2022-09-17T16:58:10;98245.63;;;12.58;65.06
42671;BME280;28283;55.426;37.756;2022-09-17T17:03:17;98246.91;;;12.55;64.98
42671;BME280;28283;55.426;37.756;2022-09-17T17:08:46;98071.38;;;11.25;66.12
42671;BME280;28283;55.426;37.756;2022-09-17T17:13:51;98261.00;;;12.46;66.84
42671;BME280;28283;55.426;37.756;2022-09-17T17:18:52;98246.34;;;12.41;66.65
42671;BME280;28283;55.426;37.756;2022-09-17T17:23:53;98231.69;;;12.20;66.98
42671;BME280;28283;55.426;37.756;2022-09-17T17:28:54;98258.00;;;12.30;67.89
42671;BME280;28283;55.426;37.756;2022-09-17T17:33:56;98262.03;;;12.16;67.74
42671;BME280;28283;55.426;37.756;2022-09-17T17:38:59;98271.50;;;12.18;67.89
42671;BME280;28283;55.426;37.756;2022-09-17T17:44:00;98264.03;;;12.09;68.31
42671;BME280;28283;55.426;37.756;2022-09-17T17:49:01;98261.34;;;11.97;68.96
42671;BME280;28283;55.426;37.756;2022-09-17T17:54:02;98262.06;;;11.92;69.39
42671;BME280;28283;55.426;37.756;2022-09-17T17:59:03;98276.91;;;11.95;69.13
42671;BME280;28283;55.426;37.756;2022-09-17T18:04:05;98264.59;;;11.75;70.51
42671;BME280;28283;55.426;37.756;2022-09-17T18:09:09;98253.41;;;11.67;70.74
42671;BME280;28283;55.426;37.756;2022-09-17T18:14:12;98267.78;;;11.72;70.78
42671;BME280;28283;55.426;37.756;2022-09-17T18:19:13;98281.13;;;11.67;70.82
42671;BME280;28283;55.426;37.756;2022-09-17T18:24:17;98276.31;;;11.57;71.64
42671;BME280;28283;55.426;37.756;2022-09-17T18:29:18;98274.56;;;11.39;72.23
42671;BME280;28283;55.426;37.756;2022-09-17T18:34:19;98276.69;;;11.49;70.81
42671;BME280;28283;55.426;37.756;2022-09-17T18:39:21;98261.88;;;11.04;73.21
42671;BME280;28283;55.426;37.756;2022-09-17T18:44:22;98287.38;;;11.14;73.64
42671;BME280;28283;55.426;37.756;2022-09-17T18:49:24;98281.53;;;11.05;74.20
42671;BME280;28283;55.426;37.756;2022-09-17T18:54:25;98285.50;;;11.02;74.17
42671;BME280;28283;55.426;37.756;2022-09-17T18:59:26;98288.50;;;10.94;74.76
42671;BME280;28283;55.426;37.756;2022-09-17T19:04:27;98291.53;;;10.86;75.39
42671;BME280;28283;55.426;37.756;2022-09-17T19:09:28;98294.53;;;10.78;75.66
42671;BME280;28283;55.426;37.756;2022-09-17T19:14:29;98301.28;;;10.68;75.89
42671;BME280;28283;55.426;37.756;2022-09-17T19:19:32;98299.59;;;10.56;76.15
42671;BME280;28283;55.426;37.756;2022-09-17T19:24:36;98287.38;;;10.41;76.69
42671;BME280;28283;55.426;37.756;2022-09-17T19:29:37;98299.84;;;10.36;77.62
42671;BME280;28283;55.426;37.756;2022-09-17T19:34:38;98305.03;;;10.49;76.13
42671;BME280;28283;55.426;37.756;2022-09-17T19:39:42;98316.97;;;10.16;78.58
42671;BME280;28283;55.426;37.756;2022-09-17T19:44:43;98297.50;;;10.02;78.79
42671;BME280;28283;55.426;37.756;2022-09-17T19:49:43;98287.41;;;9.98;79.33
42671;BME280;28283;55.426;37.756;2022-09-17T19:54:46;98291.16;;;9.97;79.80
42671;BME280;28283;55.426;37.756;2022-09-17T19:59:47;98273.41;;;9.77;80.50
42671;BME280;28283;55.426;37.756;2022-09-17T20:04:49;98329.72;;;10.02;80.41
42671;BME280;28283;55.426;37.756;2022-09-17T20:09:49;98339.47;;;9.97;80.63
42671;BME280;28283;55.426;37.756;2022-09-17T20:14:50;98347.38;;;9.91;81.22
42671;BME280;28283;55.426;37.756;2022-09-17T20:19:51;98336.16;;;9.76;81.61
42671;BME280;28283;55.426;37.756;2022-09-17T20:24:51;98295.91;;;9.51;82.13
42671;BME280;28283;55.426;37.756;2022-09-17T20:29:52;98353.47;;;9.80;82.59
42671;BME280;28283;55.426;37.756;2022-09-17T20:34:53;98355.78;;;9.77;82.59
42671;BME280;28283;55.426;37.756;2022-09-17T20:39:54;98355.41;;;9.73;82.65
42671;BME280;28283;55.426;37.756;2022-09-17T20:44:54;98274.34;;;9.21;83.32
42671;BME280;28283;55.426;37.756;2022-09-17T20:49:55;98254.41;;;9.10;83.42
42671;BME280;28283;55.426;37.756;2022-09-17T20:54:56;98350.50;;;9.63;84.09
42671;BME280;28283;55.426;37.756;2022-09-17T20:59:56;98355.06;;;9.63;84.03
42671;BME280;28283;55.426;37.756;2022-09-17T21:05:00;98334.50;;;9.57;84.36
42671;BME280;28283;55.426;37.756;2022-09-17T21:10:00;98339.84;;;9.57;83.17
42671;BME280;28283;55.426;37.756;2022-09-17T21:15:01;98334.38;;;9.45;83.93
42671;BME280;28283;55.426;37.756;2022-09-17T21:20:03;98384.91;;;9.73;84.53
42671;BME280;28283;55.426;37.756;2022-09-17T21:25:05;98332.59;;;9.32;84.73
42671;BME280;28283;55.426;37.756;2022-09-17T21:30:06;98394.16;;;9.77;84.75
42671;BME280;28283;55.426;37.756;2022-09-17T21:35:09;98403.69;;;9.73;85.16
42671;BME280;28283;55.426;37.756;2022-09-17T21:40:10;98407.25;;;9.67;84.89
42671;BME280;28283;55.426;37.756;2022-09-17T21:45:10;98421.50;;;9.67;85.27
42671;BME280;28283;55.426;37.756;2022-09-17T21:50:11;98419.03;;;9.66;85.84
42671;BME280;28283;55.426;37.756;2022-09-17T21:55:11;98418.19;;;9.65;85.85
42671;BME280;28283;55.426;37.756;2022-09-17T22:00:13;98389.00;;;9.50;85.83
42671;BME280;28283;55.426;37.756;2022-09-17T22:05:14;98399.25;;;9.60;86.15
42671;BME280;28283;55.426;37.756;2022-09-17T22:10:15;98411.03;;;9.59;86.14
42671;BME280;28283;55.426;37.756;2022-09-17T22:15:17;98352.31;;;9.19;86.49
42671;BME280;28283;55.426;37.756;2022-09-17T22:20:18;98403.84;;;9.53;86.57
42671;BME280;28283;55.426;37.756;2022-09-17T22:25:19;98398.81;;;9.63;85.19
42671;BME280;28283;55.426;37.756;2022-09-17T22:30:19;98355.75;;;9.26;86.40
42671;BME280;28283;55.426;37.756;2022-09-17T22:35:20;98353.06;;;9.26;87.08
42671;BME280;28283;55.426;37.756;2022-09-17T22:40:21;98354.06;;;9.32;87.18
42671;BME280;28283;55.426;37.756;2022-09-17T22:45:21;98357.31;;;9.41;87.33
42671;BME280;28283;55.426;37.756;2022-09-17T22:50:22;98364.50;;;9.40;87.63
42671;BME280;28283;55.426;37.756;2022-09-17T22:55:23;98390.66;;;9.51;87.21
42671;BME280;28283;55.426;37.756;2022-09-17T23:00:33;98298.75;;;9.06;87.96
42671;BME280;28283;55.426;37.756;2022-09-17T23:05:34;98370.03;;;9.45;87.70
42671;BME280;28283;55.426;37.756;2022-09-17T23:10:35;98375.81;;;9.49;87.95
42671;BME280;28283;55.426;37.756;2022-09-17T23:15:37;98352.03;;;9.27;88.37
42671;BME280;28283;55.426;37.756;2022-09-17T23:20:37;98346.97;;;9.12;88.34
42671;BME280;28283;55.426;37.756;2022-09-17T23:25:38;98367.50;;;9.25;88.48
42671;BME280;28283;55.426;37.756;2022-09-17T23:30:38;98371.78;;;9.33;88.47
42671;BME280;28283;55.426;37.756;2022-09-17T23:35:39;98374.72;;;9.31;88.91
42671;BME280;28283;55.426;37.756;2022-09-17T23:40:40;98346.56;;;9.15;89.04
42671;BME280;28283;55.426;37.756;2022-09-17T23:45:41;98354.38;;;9.17;89.08
42671;BME280;28283;55.426;37.756;2022-09-17T23:50:42;98378.91;;;9.21;89.21
42671;BME280;28283;55.426;37.756;2022-09-17T23:55:49;98357.78;;;8.99;89.37
